createdAt,value
2018-08-06T00:00:37.223Z,69.93
2018-08-06T00:03:29.971Z,70.70
2018-08-06T00:04:08.321Z,70.42
2018-08-06T00:05:22.972Z,70.32
2018-08-06T00:07:40.741Z,70.57
2018-08-06T00:08:40.748Z,71.15
2018-08-06T00:09:40.748Z,71.15
2018-08-06T00:10:41.248Z,71.05
2018-08-06T00:11:41.307Z,71.34
2018-08-06T00:12:40.587Z,71.34
2018-08-06T00:13:41.247Z,71.15
2018-08-06T00:14:41.767Z,71.34
2018-08-06T00:15:41.748Z,71.82
2018-08-06T00:16:41.756Z,71.92
2018-08-06T00:17:41.748Z,72.01
2018-08-06T00:18:42.248Z,71.92
2018-08-06T00:19:42.247Z,72.11
2018-08-06T00:20:42.248Z,71.34
2018-08-06T00:21:41.724Z,71.92
2018-08-06T00:26:06.431Z,71.25
2018-08-06T00:26:45.435Z,71.53
2018-08-06T00:27:45.435Z,71.82
2018-08-06T00:28:45.052Z,71.63
2018-08-06T00:29:45.942Z,71.82
2018-08-06T00:30:45.935Z,72.11
2018-08-06T00:31:45.936Z,71.92
2018-08-06T00:33:00.439Z,71.98
2018-08-06T00:33:48.443Z,72.74
2018-08-06T00:34:46.367Z,72.94
2018-08-06T00:35:46.440Z,72.74
2018-08-06T00:36:46.934Z,72.45
2018-08-06T00:38:07.934Z,72.39
2018-08-06T00:38:46.937Z,71.82
2018-08-06T00:39:46.461Z,72.30
2018-08-06T00:40:53.434Z,72.30
2018-08-06T00:41:47.435Z,72.01
2018-08-06T00:43:08.434Z,71.88
2018-08-06T00:43:47.438Z,72.36
2018-08-06T00:44:53.936Z,71.92
2018-08-06T00:47:25.397Z,72.36
2018-08-06T00:48:40.326Z,72.36
2018-08-06T00:49:25.333Z,72.74
2018-08-06T00:50:40.826Z,72.64
2018-08-06T00:51:40.826Z,72.84
2018-08-06T00:52:19.178Z,73.03
2018-08-06T00:53:19.834Z,73.80
2018-08-06T00:54:34.326Z,73.32
2018-08-06T00:55:20.360Z,73.32
2018-08-06T00:56:41.328Z,73.03
2018-08-06T00:57:20.326Z,73.90
2018-08-06T00:58:22.259Z,73.70
2018-08-06T00:59:21.762Z,73.99
2018-08-06T01:00:20.172Z,73.80
2018-08-06T01:01:20.282Z,73.41
2018-08-06T01:02:27.326Z,73.70
2018-08-06T01:03:35.334Z,73.80
2018-08-06T01:04:42.326Z,73.70
2018-08-06T01:05:21.326Z,74.18
2018-08-06T01:06:21.326Z,73.99
2018-08-06T01:07:21.826Z,73.47
2018-08-06T01:08:21.869Z,73.76
2018-08-06T01:09:21.093Z,74.05
2018-08-06T01:10:21.829Z,74.33
2018-08-06T01:11:21.827Z,74.33
2018-08-06T01:12:22.325Z,74.27
2018-08-06T01:13:22.332Z,73.57
2018-08-06T01:14:22.326Z,73.95
2018-08-06T01:15:22.326Z,73.76
2018-08-06T01:16:24.827Z,74.05
2018-08-06T01:18:54.214Z,73.86
2018-08-06T01:19:53.554Z,73.76
2018-08-06T01:20:54.216Z,74.43
2018-08-06T01:24:57.210Z,74.05
2018-08-06T01:26:19.149Z,74.43
2018-08-06T01:26:58.152Z,74.33
2018-08-06T01:28:19.156Z,74.52
2018-08-06T01:28:57.637Z,74.33
2018-08-06T01:29:57.742Z,74.62
2018-08-06T01:32:30.006Z,73.66
2018-08-06T01:33:30.018Z,73.47
2018-08-06T01:34:30.014Z,73.19
2018-08-06T01:35:30.514Z,73.47
2018-08-06T01:36:30.946Z,73.28
2018-08-06T01:37:30.512Z,73.76
2018-08-06T01:38:30.512Z,74.15
2018-08-06T01:39:30.513Z,74.43
2018-08-06T01:40:31.012Z,74.11
2018-08-06T01:41:31.012Z,74.01
2018-08-06T01:42:52.012Z,73.05
2018-08-06T01:43:31.012Z,73.72
2018-08-06T01:44:30.635Z,74.20
2018-08-06T01:45:31.513Z,75.35
2018-08-06T01:46:31.513Z,75.64
2018-08-06T01:47:32.515Z,75.93
2018-08-06T01:48:32.013Z,75.93
2018-08-06T01:49:32.011Z,74.68
2018-08-06T01:50:32.019Z,74.77
2018-08-06T01:51:32.092Z,74.40
2018-08-06T01:52:32.512Z,75.83
2018-08-06T01:53:31.749Z,76.31
2018-08-06T01:54:32.516Z,76.50
2018-08-06T01:55:32.515Z,77.17
2018-08-06T01:56:33.014Z,76.69
2018-08-06T01:57:33.012Z,76.79
2018-08-06T01:58:33.012Z,75.83
2018-08-06T01:59:53.484Z,75.35
2018-08-06T02:02:07.666Z,74.30
2018-08-06T02:03:04.735Z,75.26
2018-08-06T02:04:07.163Z,76.21
2018-08-06T02:05:05.230Z,76.02
2018-08-06T02:07:36.364Z,75.93
2018-08-06T02:08:37.108Z,76.12
2018-08-06T02:09:38.105Z,76.89
2018-08-06T02:10:36.717Z,76.69
2018-08-06T02:11:36.814Z,77.08
2018-08-06T02:12:37.610Z,77.08
2018-08-06T02:13:37.611Z,76.69
2018-08-06T02:14:40.078Z,77.17
2018-08-06T02:15:38.106Z,77.17
2018-08-06T02:16:38.108Z,76.50
2018-08-06T02:17:38.113Z,76.79
2018-08-06T02:18:38.607Z,76.40
2018-08-06T02:19:38.574Z,75.83
2018-08-06T02:20:38.607Z,75.35
2018-08-06T02:21:39.541Z,75.73
2018-08-06T02:22:59.148Z,76.21
2018-08-06T02:24:06.119Z,75.93
2018-08-06T02:24:40.045Z,76.40
2018-08-06T02:26:00.107Z,75.64
2018-08-06T02:26:39.106Z,75.02
2018-08-06T02:27:39.608Z,75.70
2018-08-06T02:28:38.830Z,75.98
2018-08-06T02:29:39.606Z,75.79
2018-08-06T02:30:39.607Z,76.94
2018-08-06T02:32:03.107Z,77.13
2018-08-06T02:32:40.125Z,77.70
2018-08-06T02:33:40.122Z,77.70
2018-08-06T02:34:40.106Z,77.42
2018-08-06T02:35:40.606Z,77.23
2018-08-06T02:36:44.538Z,77.13
2018-08-06T02:39:12.611Z,77.46
2018-08-06T02:43:15.408Z,78.19
2018-08-06T02:44:35.760Z,77.51
2018-08-06T02:45:14.872Z,77.42
2018-08-06T02:46:36.927Z,78.09
2018-08-06T02:47:15.915Z,78.28
2018-08-06T02:48:36.915Z,78.19
2018-08-06T02:49:15.270Z,77.90
2018-08-06T02:50:18.347Z,77.70
2018-08-06T02:51:37.415Z,78.28
2018-08-06T02:52:37.420Z,77.90
2018-08-06T02:53:16.414Z,77.70
2018-08-06T02:54:37.415Z,77.80
2018-08-06T02:55:16.920Z,77.70
2018-08-06T02:56:37.931Z,77.70
2018-08-06T02:57:16.915Z,77.13
2018-08-06T02:58:16.914Z,77.33
2018-08-06T02:59:16.515Z,77.04
2018-08-06T03:00:38.421Z,76.18
2018-08-06T03:01:17.415Z,75.89
2018-08-06T03:02:17.415Z,76.37
2018-08-06T03:03:17.915Z,76.75
2018-08-06T03:04:17.919Z,77.13
2018-08-06T03:05:17.918Z,77.13
2018-08-06T03:06:17.918Z,78.09
2018-08-06T03:07:17.518Z,78.57
2018-08-06T03:08:18.414Z,78.28
2018-08-06T03:09:18.416Z,78.38
2018-08-06T03:10:18.423Z,78.19
2018-08-06T03:11:39.915Z,77.33
2018-08-06T03:12:18.914Z,75.98
2018-08-06T03:13:18.913Z,75.27
2018-08-06T03:14:18.912Z,75.76
2018-08-06T03:15:19.417Z,76.52
2018-08-06T03:16:18.676Z,77.00
2018-08-06T03:17:19.414Z,77.28
2018-08-06T03:18:19.415Z,77.76
2018-08-06T03:19:40.012Z,78.34
2018-08-06T03:20:19.916Z,78.53
2018-08-06T03:21:19.914Z,78.43
2018-08-06T03:22:19.387Z,79.10
2018-08-06T03:23:20.414Z,78.91
2018-08-06T03:24:20.415Z,79.20
2018-08-06T03:25:20.415Z,79.10
2018-08-06T03:26:20.420Z,79.00
2018-08-06T03:27:20.914Z,78.34
2018-08-06T03:28:43.388Z,77.86
2018-08-06T03:29:20.914Z,78.05
2018-08-06T03:30:20.921Z,77.57
2018-08-06T03:31:42.423Z,76.71
2018-08-06T03:32:21.414Z,76.81
2018-08-06T03:33:20.762Z,76.71
2018-08-06T03:34:21.414Z,77.28
2018-08-06T03:35:21.915Z,78.05
2018-08-06T03:36:42.131Z,79.10
2018-08-06T03:37:35.921Z,79.44
2018-08-06T03:38:42.915Z,80.16
2018-08-06T03:39:22.425Z,80.25
2018-08-06T03:40:22.414Z,80.25
2018-08-06T03:41:22.414Z,80.16
2018-08-06T03:42:22.416Z,80.06
2018-08-06T03:43:43.914Z,80.06
2018-08-06T03:44:43.120Z,79.96
2018-08-06T03:45:22.914Z,79.77
2018-08-06T03:46:22.923Z,80.35
2018-08-06T03:47:25.414Z,80.35
2018-08-06T03:49:54.797Z,79.58
2018-08-06T03:50:54.799Z,79.29
2018-08-06T03:51:55.310Z,80.06
2018-08-06T03:53:17.771Z,80.25
2018-08-06T03:53:55.304Z,80.82
2018-08-06T03:54:54.792Z,80.16
2018-08-06T03:55:55.804Z,80.16
2018-08-06T03:56:55.810Z,79.96
2018-08-06T03:58:09.804Z,80.35
2018-08-06T03:58:55.292Z,79.39
2018-08-06T03:59:55.389Z,79.10
2018-08-06T04:00:58.309Z,78.53
2018-08-06T04:01:56.313Z,78.24
2018-08-06T04:04:48.836Z,78.53
2018-08-06T04:05:28.801Z,78.34
2018-08-06T04:06:35.798Z,77.48
2018-08-06T04:07:28.806Z,78.24
2018-08-06T04:08:28.268Z,77.57
2018-08-06T04:09:52.299Z,78.34
2018-08-06T04:12:05.121Z,78.87
2018-08-06T04:13:00.020Z,79.06
2018-08-06T04:14:00.691Z,79.06
2018-08-06T04:15:00.689Z,80.11
2018-08-06T04:16:01.188Z,80.69
2018-08-06T04:17:01.190Z,80.63
2018-08-06T04:18:22.189Z,80.50
2018-08-06T04:19:01.188Z,80.02
2018-08-06T04:20:01.689Z,80.35
2018-08-06T04:21:00.934Z,79.58
2018-08-06T04:23:33.185Z,79.16
2018-08-06T04:24:33.194Z,79.77
2018-08-06T04:25:32.662Z,79.58
2018-08-06T04:26:35.697Z,79.77
2018-08-06T04:27:47.693Z,80.06
2018-08-06T04:28:33.692Z,79.96
2018-08-06T04:29:33.692Z,80.82
2018-08-06T04:32:19.445Z,80.54
2018-08-06T04:33:05.457Z,80.54
2018-08-06T04:34:05.507Z,80.82
2018-08-06T04:35:05.953Z,80.25
2018-08-06T04:36:05.952Z,80.92
2018-08-06T04:37:05.956Z,80.16
2018-08-06T04:38:05.952Z,80.35
2018-08-06T04:39:27.459Z,80.06
2018-08-06T04:40:06.452Z,79.68
2018-08-06T04:41:06.452Z,79.87
2018-08-06T04:42:06.449Z,79.96
2018-08-06T04:44:27.950Z,80.25
2018-08-06T04:45:06.304Z,80.44
2018-08-06T04:46:07.042Z,80.16
2018-08-06T04:47:06.547Z,80.06
2018-08-06T04:48:06.645Z,80.35
2018-08-06T04:49:07.458Z,80.63
2018-08-06T04:50:13.451Z,80.54
2018-08-06T04:51:06.926Z,80.73
2018-08-06T04:52:07.958Z,80.63
2018-08-06T04:54:39.334Z,80.82
2018-08-06T04:55:39.332Z,80.92
2018-08-06T04:56:39.334Z,80.82
2018-08-06T04:57:39.833Z,80.92
2018-08-06T04:58:39.062Z,80.92
2018-08-06T04:59:39.868Z,80.92
2018-08-06T05:01:00.833Z,80.54
2018-08-06T05:01:40.333Z,80.73
2018-08-06T05:02:40.334Z,80.54
2018-08-06T05:03:39.681Z,80.63
2018-08-06T05:04:39.780Z,80.54
2018-08-06T05:05:40.832Z,80.44
2018-08-06T05:06:40.845Z,81.02
2018-08-06T05:07:40.835Z,81.02
2018-08-06T05:08:40.832Z,80.92
2018-08-06T05:09:40.834Z,81.21
2018-08-06T05:10:42.795Z,80.87
2018-08-06T05:11:41.332Z,81.05
2018-08-06T05:12:41.333Z,80.67
2018-08-06T05:13:41.376Z,81.05
2018-08-06T05:14:41.839Z,81.34
2018-08-06T05:15:41.842Z,81.25
2018-08-06T05:16:41.849Z,80.87
2018-08-06T05:17:41.832Z,80.96
2018-08-06T05:18:42.333Z,81.25
2018-08-06T05:19:42.332Z,80.29
2018-08-06T05:20:41.682Z,80.67
2018-08-06T05:21:42.338Z,81.05
2018-08-06T05:22:42.831Z,80.77
2018-08-06T05:23:42.829Z,80.62
2018-08-06T05:24:42.857Z,80.81
2018-08-06T05:25:42.838Z,80.04
2018-08-06T05:26:42.439Z,80.24
2018-08-06T05:29:16.181Z,80.27
2018-08-06T05:30:15.656Z,79.99
2018-08-06T05:31:14.242Z,80.47
2018-08-06T05:32:37.663Z,79.89
2018-08-06T05:33:35.406Z,79.51
2018-08-06T05:34:15.224Z,79.74
2018-08-06T05:35:15.224Z,79.16
2018-08-06T05:36:15.224Z,78.49
2018-08-06T05:40:18.418Z,78.82
2018-08-06T05:41:19.363Z,79.11
2018-08-06T05:42:18.429Z,78.63
2018-08-06T05:44:56.186Z,77.67
2018-08-06T05:46:04.197Z,77.58
2018-08-06T05:46:50.196Z,77.95
2018-08-06T05:47:50.694Z,77.58
2018-08-06T05:48:51.692Z,78.05
2018-08-06T05:49:50.046Z,78.25
2018-08-06T05:50:50.699Z,78.53
2018-08-06T05:52:12.193Z,77.95
2018-08-06T05:52:51.193Z,78.63
2018-08-06T05:53:51.193Z,79.39
2018-08-06T05:55:05.206Z,80.12
2018-08-06T05:56:11.789Z,80.32
2018-08-06T05:57:05.694Z,80.51
2018-08-06T05:57:51.694Z,80.51
2018-08-06T05:58:51.169Z,81.18
2018-08-06T05:59:52.203Z,81.18
2018-08-06T06:01:13.201Z,81.33
2018-08-06T06:01:51.556Z,80.70
2018-08-06T06:02:52.195Z,80.70
2018-08-06T06:04:12.777Z,80.60
2018-08-06T06:04:51.877Z,81.08
2018-08-06T06:07:25.591Z,80.32
2018-08-06T06:08:25.598Z,80.51
2018-08-06T06:09:23.699Z,80.60
2018-08-06T06:10:26.110Z,80.83
2018-08-06T06:11:24.635Z,79.59
2018-08-06T06:12:24.643Z,79.49
2018-08-06T06:13:39.133Z,78.67
2018-08-06T06:14:24.351Z,76.34
2018-08-06T06:15:26.067Z,74.65
2018-08-06T06:16:25.133Z,73.79
2018-08-06T06:17:24.733Z,73.15
2018-08-06T06:18:48.634Z,72.77
2018-08-06T06:19:25.644Z,72.96
2018-08-06T06:20:25.637Z,72.38
2018-08-06T06:21:47.133Z,71.61
2018-08-06T06:22:25.365Z,71.52
2018-08-06T06:23:25.456Z,69.85
2018-08-06T06:24:26.133Z,67.74
2018-08-06T06:25:26.133Z,67.68
2018-08-06T06:26:47.624Z,67.29
2018-08-06T06:27:25.862Z,66.85
2018-08-06T06:28:26.659Z,66.07
2018-08-06T06:29:26.110Z,64.86
2018-08-06T06:30:33.154Z,63.54
2018-08-06T06:31:26.255Z,60.86
2018-08-06T06:32:28.565Z,60.13
2018-08-06T06:33:41.152Z,58.80
2018-08-06T06:34:47.590Z,56.77
2018-08-06T06:35:26.698Z,56.96
2018-08-06T06:36:27.634Z,57.09
2018-08-06T06:37:26.868Z,56.41
2018-08-06T06:38:27.633Z,55.16
2018-08-06T06:39:27.112Z,55.38
2018-08-06T06:40:28.134Z,55.09
2018-08-06T06:41:35.105Z,53.83
2018-08-06T06:42:28.135Z,52.39
2018-08-06T06:43:27.612Z,52.77
2018-08-06T06:44:30.635Z,53.45
2018-08-06T06:45:27.855Z,53.64
2018-08-06T06:46:30.634Z,53.55
2018-08-06T06:47:28.634Z,53.55
2018-08-06T06:48:28.246Z,53.83
2018-08-06T06:49:30.103Z,52.75
2018-08-06T06:50:30.567Z,53.01
2018-08-06T06:51:50.132Z,54.53
2018-08-06T06:52:28.613Z,56.43
2018-08-06T06:53:28.726Z,58.07
2018-08-06T06:54:49.840Z,57.87
2018-08-06T06:55:29.634Z,57.97
2018-08-06T06:56:50.636Z,58.17
2018-08-06T06:57:30.135Z,57.39
2018-08-06T06:58:30.139Z,58.84
2018-08-06T06:59:30.136Z,59.42
2018-08-06T07:00:50.610Z,59.68
2018-08-06T07:01:30.636Z,58.17
2018-08-06T07:02:51.634Z,60.06
2018-08-06T07:03:30.659Z,61.51
2018-08-06T07:04:53.068Z,62.57
2018-08-06T07:05:37.143Z,60.80
2018-08-06T07:06:33.140Z,62.38
2018-08-06T07:07:32.074Z,61.35
2018-08-06T07:08:31.134Z,60.13
2018-08-06T07:09:31.130Z,60.03
2018-08-06T07:10:52.642Z,58.97
2018-08-06T07:11:37.635Z,59.25
2018-08-06T07:12:52.634Z,57.42
2018-08-06T07:13:52.716Z,57.42
2018-08-06T07:14:31.233Z,58.87
2018-08-06T07:15:32.137Z,59.35
2018-08-06T07:16:53.134Z,59.06
2018-08-06T07:17:32.136Z,58.51
2018-08-06T07:18:32.628Z,57.64
2018-08-06T07:19:32.632Z,56.41
2018-08-06T07:20:34.588Z,54.99
2018-08-06T07:21:32.635Z,54.25
2018-08-06T07:22:33.135Z,54.93
2018-08-06T07:23:32.356Z,53.86
2018-08-06T07:24:33.143Z,53.57
2018-08-06T07:25:33.137Z,53.28
2018-08-06T07:26:32.738Z,52.34
2018-08-06T07:27:32.857Z,52.36
2018-08-06T07:28:33.635Z,51.52
2018-08-06T07:29:33.114Z,50.55
2018-08-06T07:30:33.309Z,49.39
2018-08-06T07:31:33.301Z,48.49
2018-08-06T07:32:33.407Z,49.80
2018-08-06T07:33:35.594Z,50.65
2018-08-06T07:34:33.628Z,50.93
2018-08-06T07:35:40.631Z,50.35
2018-08-06T07:38:12.025Z,52.29
2018-08-06T07:40:37.529Z,52.26
2018-08-06T07:41:43.541Z,51.51
2018-08-06T07:42:37.537Z,51.44
2018-08-06T07:43:38.037Z,52.12
2018-08-06T07:44:52.037Z,51.42
2018-08-06T07:45:37.409Z,51.54
2018-08-06T07:46:53.991Z,51.44
2018-08-06T07:47:38.977Z,51.44
2018-08-06T07:48:38.641Z,51.35
2018-08-06T07:49:37.886Z,51.47
2018-08-06T07:50:45.536Z,50.50
2018-08-06T07:51:38.537Z,49.37
2018-08-06T07:52:38.166Z,49.54
2018-08-06T07:53:45.061Z,50.21
2018-08-06T07:54:39.037Z,49.95
2018-08-06T07:55:39.036Z,49.49
2018-08-06T07:56:39.537Z,49.10
2018-08-06T07:57:38.771Z,49.49
2018-08-06T07:58:38.891Z,49.32
2018-08-06T07:59:39.589Z,48.47
2018-08-06T08:02:03.043Z,47.13
2018-08-06T08:02:39.394Z,46.55
2018-08-06T08:03:42.048Z,45.10
2018-08-06T08:04:54.538Z,45.10
2018-08-06T08:06:00.753Z,45.39
2018-08-06T08:06:42.535Z,45.20
2018-08-06T08:07:40.538Z,45.41
2018-08-06T08:08:40.150Z,45.21
2018-08-06T08:09:40.267Z,45.31
2018-08-06T08:10:42.000Z,45.12
2018-08-06T08:11:41.038Z,43.86
2018-08-06T08:12:41.539Z,45.21
2018-08-06T08:13:41.539Z,44.92
2018-08-06T08:14:41.538Z,44.56
2018-08-06T08:15:41.535Z,44.17
2018-08-06T08:16:56.051Z,43.10
2018-08-06T08:17:43.499Z,43.78
2018-08-06T08:18:43.472Z,43.98
2018-08-06T08:19:42.064Z,43.12
2018-08-06T08:21:03.038Z,43.71
2018-08-06T08:21:41.647Z,43.41
2018-08-06T08:22:44.562Z,43.71
2018-08-06T08:23:41.906Z,42.64
2018-08-06T08:24:42.620Z,42.81
2018-08-06T08:27:13.591Z,42.93
2018-08-06T08:28:14.306Z,43.22
2018-08-06T08:29:20.307Z,43.05
2018-08-06T08:30:14.811Z,42.95
2018-08-06T08:31:35.039Z,41.59
2018-08-06T08:32:14.807Z,40.79
2018-08-06T08:33:14.803Z,41.96
2018-08-06T08:34:17.303Z,42.05
2018-08-06T08:37:06.985Z,42.27
2018-08-06T08:37:46.699Z,41.42
2018-08-06T08:38:46.172Z,40.25
2018-08-06T08:39:53.193Z,41.51
2018-08-06T08:40:53.193Z,41.05
2018-08-06T08:41:46.554Z,39.86
2018-08-06T08:42:47.196Z,41.32
2018-08-06T08:44:07.785Z,40.95
2018-08-06T08:44:49.693Z,41.13
2018-08-06T08:45:47.699Z,40.27
2018-08-06T08:46:47.699Z,40.95
2018-08-06T08:47:48.197Z,39.98
2018-08-06T08:48:48.194Z,39.88
2018-08-06T08:49:47.551Z,40.17
2018-08-06T08:50:48.198Z,40.17
2018-08-06T08:52:02.694Z,39.96
2018-08-06T08:52:48.695Z,40.27
2018-08-06T08:53:48.696Z,40.37
2018-08-06T08:54:48.206Z,40.17
2018-08-06T08:55:49.198Z,39.26
2018-08-06T08:57:10.194Z,40.01
2018-08-06T08:57:48.559Z,40.41
2018-08-06T08:58:48.753Z,40.89
2018-08-06T08:59:48.849Z,40.69
2018-08-06T09:00:51.716Z,41.18
2018-08-06T09:01:50.655Z,41.49
2018-08-06T09:02:51.698Z,41.10
2018-08-06T09:03:49.695Z,40.62
2018-08-06T09:04:51.627Z,39.84
2018-08-06T09:05:50.195Z,40.44
2018-08-06T09:06:49.553Z,41.22
2018-08-06T09:07:50.201Z,40.37
2018-08-06T09:08:49.800Z,40.37
2018-08-06T09:09:50.696Z,39.70
2018-08-06T09:10:52.136Z,39.61
2018-08-06T09:11:53.128Z,38.73
2018-08-06T09:13:11.229Z,38.13
2018-08-06T09:13:50.348Z,38.70
2018-08-06T09:14:51.196Z,39.06
2018-08-06T09:15:52.636Z,39.28
2018-08-06T09:16:51.204Z,39.57
2018-08-06T09:17:57.695Z,39.96
2018-08-06T09:18:51.696Z,40.17
2018-08-06T09:19:51.697Z,39.69
2018-08-06T09:20:51.696Z,39.20
2018-08-06T09:21:58.196Z,39.00
2018-08-06T09:22:51.432Z,39.49
2018-08-06T09:23:51.564Z,39.61
2018-08-06T09:24:51.688Z,38.64
2018-08-06T09:27:25.963Z,38.24
2018-08-06T09:28:44.967Z,38.64
2018-08-06T09:29:23.967Z,38.93
2018-08-06T09:30:24.941Z,37.95
2018-08-06T09:31:45.465Z,37.56
2018-08-06T09:32:24.472Z,38.73
2018-08-06T09:33:24.467Z,38.73
2018-08-06T09:34:24.081Z,38.73
2018-08-06T09:36:57.800Z,37.39
2018-08-06T09:37:56.367Z,37.58
2018-08-06T09:38:55.850Z,37.39
2018-08-06T09:39:55.959Z,36.61
2018-08-06T09:42:53.230Z,36.88
2018-08-06T09:43:28.242Z,38.05
2018-08-06T09:44:28.276Z,37.76
2018-08-06T09:45:28.738Z,37.87
2018-08-06T09:46:28.738Z,38.17
2018-08-06T09:47:34.750Z,35.52
2018-08-06T09:48:42.811Z,36.61
2018-08-06T09:49:30.670Z,35.81
2018-08-06T09:50:28.467Z,37.29
2018-08-06T09:51:29.238Z,37.77
2018-08-06T09:52:29.238Z,35.73
2018-08-06T09:53:28.847Z,34.95
2018-08-06T09:54:52.738Z,36.32
2018-08-06T09:55:29.738Z,37.58
2018-08-06T09:56:29.738Z,36.24
2018-08-06T09:57:50.357Z,36.14
2018-08-06T09:58:29.455Z,35.46
2018-08-06T09:59:30.239Z,36.63
2018-08-06T10:00:32.257Z,36.92
2018-08-06T10:03:02.028Z,34.79
2018-08-06T10:04:03.449Z,33.62
2018-08-06T10:05:01.505Z,33.41
2018-08-06T10:07:33.047Z,34.47
2018-08-06T10:08:54.782Z,34.56
2018-08-06T10:09:47.780Z,34.86
2018-08-06T10:12:05.653Z,34.00
2018-08-06T10:13:05.563Z,34.39
2018-08-06T10:14:26.563Z,34.78
2018-08-06T10:15:27.062Z,33.90
2018-08-06T10:16:27.063Z,33.90
2018-08-06T10:17:05.420Z,33.62
2018-08-06T10:18:27.057Z,33.61
2018-08-06T10:19:20.665Z,33.14
2018-08-06T10:20:06.563Z,32.55
2018-08-06T10:21:06.502Z,31.87
2018-08-06T10:22:06.566Z,32.94
2018-08-06T10:23:07.063Z,32.84
2018-08-06T10:25:38.489Z,32.57
2018-08-06T10:26:38.486Z,33.15
2018-08-06T10:27:38.495Z,32.18
2018-08-06T10:28:38.981Z,32.67
2018-08-06T10:29:38.981Z,33.73
2018-08-06T10:30:38.397Z,32.96
2018-08-06T10:31:38.986Z,31.99
2018-08-06T10:32:38.595Z,31.59
2018-08-06T10:33:38.708Z,32.39
2018-08-06T10:34:39.481Z,32.37
2018-08-06T10:35:39.481Z,32.18
2018-08-06T10:36:39.089Z,32.57
2018-08-06T10:37:46.413Z,33.46
2018-08-06T10:38:39.335Z,33.83
2018-08-06T10:39:41.993Z,33.73
2018-08-06T10:40:42.481Z,34.05
2018-08-06T10:41:39.711Z,33.93
2018-08-06T10:42:39.823Z,33.65
2018-08-06T10:43:40.484Z,33.56
2018-08-06T10:45:01.980Z,32.87
2018-08-06T10:45:40.982Z,32.39
2018-08-06T10:46:40.990Z,32.87
2018-08-06T10:47:40.481Z,32.60
2018-08-06T10:48:41.583Z,32.31
2018-08-06T10:49:55.482Z,32.50
2018-08-06T10:50:41.483Z,32.03
2018-08-06T10:51:41.493Z,31.92
2018-08-06T10:52:43.415Z,31.33
2018-08-06T10:53:41.982Z,31.74
2018-08-06T10:54:41.982Z,31.82
2018-08-06T10:55:41.984Z,31.54
2018-08-06T10:56:42.491Z,31.84
2018-08-06T10:57:42.489Z,31.82
2018-08-06T10:58:48.483Z,31.54
2018-08-06T10:59:42.543Z,30.84
2018-08-06T11:00:43.008Z,30.37
2018-08-06T11:01:43.014Z,30.96
2018-08-06T11:02:42.997Z,31.25
2018-08-06T11:03:44.439Z,30.86
2018-08-06T11:06:14.698Z,30.86
2018-08-06T11:07:14.723Z,29.10
2018-08-06T11:11:18.042Z,31.05
2018-08-06T11:12:17.405Z,29.98
2018-08-06T11:13:18.052Z,30.68
2018-08-06T11:14:18.558Z,30.87
2018-08-06T11:15:18.555Z,29.60
2018-08-06T11:16:18.549Z,29.60
2018-08-06T11:17:18.552Z,30.00
2018-08-06T11:18:39.143Z,28.54
2018-08-06T11:19:19.059Z,28.74
2018-08-06T11:20:20.525Z,27.95
2018-08-06T11:21:19.052Z,28.45
2018-08-06T11:22:19.553Z,28.06
2018-08-06T11:23:18.818Z,28.44
2018-08-06T11:24:18.925Z,28.54
2018-08-06T11:25:19.551Z,28.65
2018-08-06T11:26:20.051Z,30.51
2018-08-06T11:27:20.054Z,30.79
2018-08-06T11:28:20.054Z,29.32
2018-08-06T11:29:20.064Z,27.28
2018-08-06T11:30:20.551Z,26.68
2018-08-06T11:32:51.958Z,30.69
2018-08-06T11:33:51.971Z,29.71
2018-08-06T11:34:51.484Z,29.52
2018-08-06T11:35:52.469Z,29.44
2018-08-06T11:36:54.951Z,29.14
2018-08-06T11:37:52.469Z,27.97
2018-08-06T11:38:52.475Z,30.22
2018-08-06T11:39:52.091Z,28.86
2018-08-06T11:40:52.980Z,29.64
2018-08-06T11:44:56.008Z,27.15
2018-08-06T11:45:56.015Z,28.54
2018-08-06T11:48:27.677Z,26.24
2018-08-06T11:49:27.690Z,24.38
2018-08-06T11:50:42.189Z,23.00
2018-08-06T11:51:49.194Z,21.44
2018-08-06T11:52:29.617Z,22.05
2018-08-06T11:53:48.652Z,20.57
2018-08-06T11:54:34.684Z,20.18
2018-08-06T11:55:34.687Z,21.68
2018-08-06T11:56:49.104Z,20.29
2018-08-06T11:57:49.707Z,19.60
2018-08-06T12:00:23.426Z,20.68
2018-08-06T12:01:00.507Z,19.71
2018-08-06T12:03:34.305Z,18.93
2018-08-06T12:04:31.638Z,19.52
2018-08-06T12:05:32.294Z,19.52
2018-08-06T12:06:53.784Z,18.35
2018-08-06T12:07:32.021Z,18.96
2018-08-06T12:08:32.814Z,18.96
2018-08-06T12:09:33.285Z,19.35
2018-08-06T12:12:06.570Z,18.56
2018-08-06T12:13:25.589Z,19.54
2018-08-06T12:14:25.577Z,19.63
2018-08-06T12:15:10.071Z,19.04
2018-08-06T12:16:05.076Z,19.54
2018-08-06T12:17:06.039Z,19.05
2018-08-06T12:18:05.081Z,18.96
2018-08-06T12:19:19.582Z,18.06
2018-08-06T12:21:51.526Z,19.13
2018-08-06T12:22:58.623Z,20.23
2018-08-06T12:25:10.909Z,18.76
2018-08-06T12:26:08.962Z,17.18
2018-08-06T12:27:08.921Z,17.47
2018-08-06T12:28:09.433Z,16.99
2018-08-06T12:29:09.421Z,18.18
2018-08-06T12:30:08.787Z,17.49
2018-08-06T12:32:41.124Z,16.51
2018-08-06T12:34:02.120Z,16.13
2018-08-06T12:34:41.123Z,16.03
2018-08-06T12:35:55.620Z,16.43
2018-08-06T12:36:41.647Z,16.44
2018-08-06T12:37:41.631Z,15.35
2018-08-06T12:38:48.117Z,16.93
2018-08-06T12:39:56.126Z,16.34
2018-08-06T12:40:56.128Z,16.24
2018-08-06T12:41:42.120Z,14.16
2018-08-06T12:44:27.809Z,15.17
2018-08-06T12:45:15.248Z,14.17
2018-08-06T12:46:15.286Z,14.48
2018-08-06T12:47:35.315Z,16.56
2018-08-06T12:48:13.585Z,14.78
2018-08-06T12:49:20.314Z,14.77
2018-08-06T12:50:16.314Z,14.58
2018-08-06T12:51:20.814Z,13.97
2018-08-06T12:53:45.528Z,16.16
2018-08-06T12:54:47.672Z,15.95
2018-08-06T12:55:46.739Z,14.77
2018-08-06T12:56:46.740Z,14.37
2018-08-06T12:57:46.740Z,15.77
2018-08-06T12:58:46.735Z,15.97
2018-08-06T12:59:47.242Z,15.77
2018-08-06T13:00:49.239Z,14.89
2018-08-06T13:02:08.240Z,14.69
2018-08-06T13:02:47.238Z,14.99
2018-08-06T13:03:46.734Z,14.79
2018-08-06T13:05:01.754Z,14.19
2018-08-06T13:07:33.186Z,13.51
2018-08-06T13:08:19.179Z,13.51
2018-08-06T13:09:26.662Z,14.78
2018-08-06T13:10:19.666Z,15.06
2018-08-06T13:11:39.897Z,14.84
2018-08-06T13:12:21.097Z,15.42
2018-08-06T13:13:19.599Z,16.41
2018-08-06T13:14:26.161Z,16.50
2018-08-06T13:15:40.479Z,16.98
2018-08-06T13:16:41.168Z,16.98
2018-08-06T13:17:20.163Z,17.68
2018-08-06T13:18:35.614Z,17.86
2018-08-06T13:19:40.844Z,17.19
2018-08-06T13:20:22.664Z,16.51
2018-08-06T13:21:41.094Z,16.03
2018-08-06T13:22:27.160Z,15.84
2018-08-06T13:24:52.456Z,15.95
2018-08-06T13:25:52.461Z,15.08
2018-08-06T13:27:06.970Z,15.48
2018-08-06T13:27:58.963Z,15.48
2018-08-06T13:28:53.033Z,13.69
2018-08-06T13:29:52.963Z,15.67
2018-08-06T13:30:53.972Z,14.38
2018-08-06T13:33:38.789Z,14.79
2018-08-06T13:34:27.225Z,14.19
2018-08-06T13:35:48.294Z,14.49
2018-08-06T13:36:46.365Z,14.79
2018-08-06T13:37:46.299Z,13.70
2018-08-06T13:38:46.791Z,14.19
2018-08-06T13:39:46.035Z,14.58
2018-08-06T13:40:25.797Z,14.00
2018-08-06T13:41:25.791Z,14.19
2018-08-06T13:42:46.434Z,14.20
2018-08-06T13:43:26.290Z,14.20
2018-08-06T13:44:25.691Z,14.31
2018-08-06T13:45:26.288Z,14.21
2018-08-06T13:46:26.790Z,13.51
2018-08-06T13:47:26.035Z,14.10
2018-08-06T13:48:26.790Z,14.50
2018-08-06T13:49:26.791Z,13.41
2018-08-06T13:50:28.241Z,13.82
2018-08-06T13:51:26.500Z,14.30
2018-08-06T13:52:27.288Z,14.01
2018-08-06T13:53:48.788Z,13.71
2018-08-06T13:54:47.894Z,13.71
2018-08-06T13:55:27.786Z,13.43
2018-08-06T13:56:48.785Z,13.13
2018-08-06T13:57:27.785Z,12.24
2018-08-06T13:58:28.294Z,11.35
2018-08-06T13:59:27.620Z,11.76
2018-08-06T14:00:28.287Z,11.47
2018-08-06T14:01:28.286Z,11.27
2018-08-06T14:02:42.792Z,10.68
2018-08-06T14:03:28.785Z,10.77
2018-08-06T14:04:28.787Z,10.17
2018-08-06T14:07:21.526Z,9.78
2018-08-06T14:08:00.472Z,9.78
2018-08-06T14:09:00.478Z,9.68
2018-08-06T14:10:00.120Z,9.39
2018-08-06T14:11:00.243Z,9.59
2018-08-06T14:12:00.975Z,9.69
2018-08-06T14:13:03.904Z,10.89
2018-08-06T14:14:03.468Z,9.59
2018-08-06T14:15:00.751Z,8.99
2018-08-06T14:17:33.043Z,10.49
2018-08-06T14:18:33.050Z,9.59
2018-08-06T14:19:33.047Z,8.89
2018-08-06T14:20:53.680Z,8.69
2018-08-06T14:21:33.559Z,9.69
2018-08-06T14:22:33.547Z,8.39